sensor_id;sensor_type;location;lat;lon;timestamp;P1;durP1;ratioP1;P2;durP2;ratioP2
4696;SDS011;2362;50.780;0.292;2023-01-29T00:02:14;19.55;;;11.32;;
4696;SDS011;2362;50.780;0.292;2023-01-29T00:04:39;21.55;;;10.32;;
4696;SDS011;2362;50.780;0.292;2023-01-29T00:07:05;23.80;;;11.07;;
4696;SDS011;2362;50.780;0.292;2023-01-29T00:09:31;18.08;;;9.93;;
4696;SDS011;2362;50.780;0.292;2023-01-29T00:11:56;20.45;;;8.88;;
4696;SDS011;2362;50.780;0.292;2023-01-29T00:14:22;17.50;;;10.18;;
4696;SDS011;2362;50.780;0.292;2023-01-29T00:16:47;19.70;;;10.63;;
4696;SDS011;2362;50.780;0.292;2023-01-29T00:19:13;18.23;;;10.38;;
4696;SDS011;2362;50.780;0.292;2023-01-29T00:21:39;19.02;;;10.30;;
4696;SDS011;2362;50.780;0.292;2023-01-29T00:24:04;22.40;;;10.40;;
4696;SDS011;2362;50.780;0.292;2023-01-29T00:26:30;19.80;;;10.13;;
4696;SDS011;2362;50.780;0.292;2023-01-29T00:28:56;19.48;;;9.38;;
4696;SDS011;2362;50.780;0.292;2023-01-29T00:31:22;21.92;;;9.18;;
4696;SDS011;2362;50.780;0.292;2023-01-29T00:33:48;20.60;;;9.10;;
4696;SDS011;2362;50.780;0.292;2023-01-29T00:36:15;15.68;;;8.73;;
4696;SDS011;2362;50.780;0.292;2023-01-29T00:38:42;16.08;;;8.35;;
4696;SDS011;2362;50.780;0.292;2023-01-29T00:41:09;14.02;;;7.75;;
4696;SDS011;2362;50.780;0.292;2023-01-29T00:43:55;20.63;;;8.68;;
4696;SDS011;2362;50.780;0.292;2023-01-29T00:46:40;17.80;;;8.48;;
4696;SDS011;2362;50.780;0.292;2023-01-29T00:49:06;14.55;;;7.72;;
4696;SDS011;2362;50.780;0.292;2023-01-29T00:51:32;18.25;;;8.45;;
4696;SDS011;2362;50.780;0.292;2023-01-29T00:53:59;13.40;;;7.63;;
4696;SDS011;2362;50.780;0.292;2023-01-29T00:56:25;12.90;;;7.03;;
4696;SDS011;2362;50.780;0.292;2023-01-29T00:58:54;22.80;;;8.75;;
4696;SDS011;2362;50.780;0.292;2023-01-29T01:01:20;25.08;;;9.77;;
4696;SDS011;2362;50.780;0.292;2023-01-29T01:04:05;19.20;;;7.20;;
4696;SDS011;2362;50.780;0.292;2023-01-29T01:06:31;15.77;;;8.20;;
4696;SDS011;2362;50.780;0.292;2023-01-29T01:08:57;20.48;;;8.65;;
4696;SDS011;2362;50.780;0.292;2023-01-29T01:11:42;17.02;;;8.65;;
4696;SDS011;2362;50.780;0.292;2023-01-29T01:14:08;14.43;;;7.72;;
4696;SDS011;2362;50.780;0.292;2023-01-29T01:16:33;14.45;;;7.35;;
4696;SDS011;2362;50.780;0.292;2023-01-29T01:18:59;12.77;;;7.47;;
4696;SDS011;2362;50.780;0.292;2023-01-29T01:21:24;17.85;;;7.75;;
4696;SDS011;2362;50.780;0.292;2023-01-29T01:23:50;14.50;;;8.00;;
4696;SDS011;2362;50.780;0.292;2023-01-29T01:26:16;15.65;;;8.00;;
4696;SDS011;2362;50.780;0.292;2023-01-29T01:28:42;15.45;;;7.30;;
4696;SDS011;2362;50.780;0.292;2023-01-29T01:31:11;13.35;;;6.43;;
4696;SDS011;2362;50.780;0.292;2023-01-29T01:33:38;14.23;;;7.38;;
4696;SDS011;2362;50.780;0.292;2023-01-29T01:36:05;12.75;;;7.22;;
4696;SDS011;2362;50.780;0.292;2023-01-29T01:38:35;17.60;;;7.45;;
4696;SDS011;2362;50.780;0.292;2023-01-29T01:41:11;16.95;;;8.10;;
4696;SDS011;2362;50.780;0.292;2023-01-29T01:43:49;18.20;;;7.57;;
4696;SDS011;2362;50.780;0.292;2023-01-29T01:46:20;14.48;;;7.32;;
4696;SDS011;2362;50.780;0.292;2023-01-29T01:48:47;12.27;;;6.80;;
4696;SDS011;2362;50.780;0.292;2023-01-29T01:51:23;16.13;;;8.07;;
4696;SDS011;2362;50.780;0.292;2023-01-29T01:53:57;12.73;;;7.32;;
4696;SDS011;2362;50.780;0.292;2023-01-29T01:56:37;19.77;;;8.23;;
4696;SDS011;2362;50.780;0.292;2023-01-29T01:59:12;13.73;;;7.30;;
4696;SDS011;2362;50.780;0.292;2023-01-29T02:01:42;15.27;;;8.00;;
4696;SDS011;2362;50.780;0.292;2023-01-29T02:04:15;12.52;;;7.35;;
4696;SDS011;2362;50.780;0.292;2023-01-29T02:07:03;17.70;;;7.47;;
4696;SDS011;2362;50.780;0.292;2023-01-29T02:10:04;29.73;;;11.73;;
4696;SDS011;2362;50.780;0.292;2023-01-29T02:12:37;26.90;;;10.82;;
4696;SDS011;2362;50.780;0.292;2023-01-29T02:15:04;19.30;;;8.18;;
4696;SDS011;2362;50.780;0.292;2023-01-29T02:17:31;12.85;;;8.02;;
4696;SDS011;2362;50.780;0.292;2023-01-29T02:31:11;17.73;;;9.30;;
4696;SDS011;2362;50.780;0.292;2023-01-29T02:36:43;19.42;;;9.25;;
4696;SDS011;2362;50.780;0.292;2023-01-29T02:44:19;14.02;;;8.35;;
4696;SDS011;2362;50.780;0.292;2023-01-29T02:47:12;13.93;;;8.48;;
4696;SDS011;2362;50.780;0.292;2023-01-29T02:52:53;16.70;;;8.70;;
4696;SDS011;2362;50.780;0.292;2023-01-29T02:55:47;17.77;;;8.52;;
4696;SDS011;2362;50.780;0.292;2023-01-29T02:58:40;20.88;;;9.60;;
4696;SDS011;2362;50.780;0.292;2023-01-29T03:01:15;18.40;;;9.23;;
4696;SDS011;2362;50.780;0.292;2023-01-29T03:03:51;17.05;;;8.57;;
4696;SDS011;2362;50.780;0.292;2023-01-29T03:06:34;15.38;;;9.35;;
4696;SDS011;2362;50.780;0.292;2023-01-29T03:09:46;15.05;;;8.75;;
4696;SDS011;2362;50.780;0.292;2023-01-29T03:11:52;15.48;;;9.82;;
4696;SDS011;2362;50.780;0.292;2023-01-29T03:14:56;18.17;;;8.25;;
4696;SDS011;2362;50.780;0.292;2023-01-29T03:17:35;16.48;;;8.70;;
4696;SDS011;2362;50.780;0.292;2023-01-29T03:20:09;12.95;;;8.68;;
4696;SDS011;2362;50.780;0.292;2023-01-29T03:22:38;15.55;;;9.23;;
4696;SDS011;2362;50.780;0.292;2023-01-29T03:25:06;14.90;;;8.93;;
4696;SDS011;2362;50.780;0.292;2023-01-29T03:27:54;19.63;;;10.20;;
4696;SDS011;2362;50.780;0.292;2023-01-29T03:30:43;23.75;;;10.82;;
4696;SDS011;2362;50.780;0.292;2023-01-29T03:33:31;21.35;;;10.20;;
4696;SDS011;2362;50.780;0.292;2023-01-29T03:36:05;24.38;;;10.15;;
4696;SDS011;2362;50.780;0.292;2023-01-29T03:38:37;17.63;;;9.65;;
4696;SDS011;2362;50.780;0.292;2023-01-29T03:43:45;17.10;;;10.70;;
4696;SDS011;2362;50.780;0.292;2023-01-29T03:52:09;19.80;;;10.95;;
4696;SDS011;2362;50.780;0.292;2023-01-29T03:57:40;21.65;;;11.75;;
4696;SDS011;2362;50.780;0.292;2023-01-29T04:00:14;25.02;;;12.63;;
4696;SDS011;2362;50.780;0.292;2023-01-29T04:02:55;22.50;;;12.35;;
4696;SDS011;2362;50.780;0.292;2023-01-29T04:05:30;20.67;;;11.82;;
4696;SDS011;2362;50.780;0.292;2023-01-29T04:08:04;20.40;;;11.85;;
4696;SDS011;2362;50.780;0.292;2023-01-29T04:10:35;27.25;;;12.18;;
4696;SDS011;2362;50.780;0.292;2023-01-29T04:13:06;20.63;;;11.73;;
4696;SDS011;2362;50.780;0.292;2023-01-29T04:15:37;26.20;;;12.75;;
4696;SDS011;2362;50.780;0.292;2023-01-29T04:18:17;23.48;;;13.75;;
4696;SDS011;2362;50.780;0.292;2023-01-29T04:20:43;24.10;;;13.65;;
4696;SDS011;2362;50.780;0.292;2023-01-29T04:23:22;29.90;;;12.18;;
4696;SDS011;2362;50.780;0.292;2023-01-29T04:25:52;23.30;;;12.57;;
4696;SDS011;2362;50.780;0.292;2023-01-29T04:31:19;19.73;;;12.23;;
4696;SDS011;2362;50.780;0.292;2023-01-29T04:33:57;27.55;;;11.50;;
4696;SDS011;2362;50.780;0.292;2023-01-29T04:39:39;22.02;;;11.48;;
4696;SDS011;2362;50.780;0.292;2023-01-29T04:42:12;19.45;;;11.27;;
4696;SDS011;2362;50.780;0.292;2023-01-29T04:45:19;27.13;;;13.73;;
4696;SDS011;2362;50.780;0.292;2023-01-29T04:50:37;22.73;;;12.55;;
4696;SDS011;2362;50.780;0.292;2023-01-29T04:55:41;20.27;;;11.90;;
4696;SDS011;2362;50.780;0.292;2023-01-29T05:00:51;28.45;;;14.80;;
4696;SDS011;2362;50.780;0.292;2023-01-29T05:03:18;29.70;;;13.70;;
4696;SDS011;2362;50.780;0.292;2023-01-29T05:05:47;30.05;;;14.57;;
4696;SDS011;2362;50.780;0.292;2023-01-29T05:08:15;25.58;;;13.48;;
4696;SDS011;2362;50.780;0.292;2023-01-29T05:10:43;33.28;;;14.23;;
4696;SDS011;2362;50.780;0.292;2023-01-29T05:13:12;27.38;;;15.15;;
4696;SDS011;2362;50.780;0.292;2023-01-29T05:15:40;28.35;;;15.13;;
4696;SDS011;2362;50.780;0.292;2023-01-29T05:18:20;27.30;;;15.60;;
4696;SDS011;2362;50.780;0.292;2023-01-29T05:20:46;30.05;;;15.73;;
4696;SDS011;2362;50.780;0.292;2023-01-29T05:23:17;31.90;;;16.52;;
4696;SDS011;2362;50.780;0.292;2023-01-29T05:25:44;33.20;;;15.65;;
4696;SDS011;2362;50.780;0.292;2023-01-29T05:28:12;29.33;;;15.82;;
4696;SDS011;2362;50.780;0.292;2023-01-29T05:30:48;35.92;;;18.40;;
4696;SDS011;2362;50.780;0.292;2023-01-29T05:33:16;31.80;;;17.38;;
4696;SDS011;2362;50.780;0.292;2023-01-29T05:35:44;42.15;;;18.98;;
4696;SDS011;2362;50.780;0.292;2023-01-29T05:38:11;43.35;;;18.60;;
4696;SDS011;2362;50.780;0.292;2023-01-29T05:40:37;36.45;;;19.33;;
4696;SDS011;2362;50.780;0.292;2023-01-29T05:43:03;34.33;;;18.38;;
4696;SDS011;2362;50.780;0.292;2023-01-29T05:45:30;40.22;;;18.80;;
4696;SDS011;2362;50.780;0.292;2023-01-29T05:47:56;41.80;;;18.48;;
4696;SDS011;2362;50.780;0.292;2023-01-29T05:50:23;36.13;;;18.30;;
4696;SDS011;2362;50.780;0.292;2023-01-29T05:52:57;37.03;;;17.98;;
4696;SDS011;2362;50.780;0.292;2023-01-29T05:55:23;34.83;;;20.02;;
4696;SDS011;2362;50.780;0.292;2023-01-29T05:57:49;41.53;;;20.73;;
4696;SDS011;2362;50.780;0.292;2023-01-29T06:00:14;39.70;;;20.45;;
4696;SDS011;2362;50.780;0.292;2023-01-29T06:02:40;36.28;;;18.65;;
4696;SDS011;2362;50.780;0.292;2023-01-29T06:05:06;35.83;;;17.70;;
4696;SDS011;2362;50.780;0.292;2023-01-29T06:07:32;35.13;;;19.23;;
4696;SDS011;2362;50.780;0.292;2023-01-29T06:09:58;33.45;;;17.95;;
4696;SDS011;2362;50.780;0.292;2023-01-29T06:12:25;41.03;;;17.85;;
4696;SDS011;2362;50.780;0.292;2023-01-29T06:14:51;34.58;;;18.63;;
4696;SDS011;2362;50.780;0.292;2023-01-29T06:17:16;32.45;;;16.77;;
4696;SDS011;2362;50.780;0.292;2023-01-29T06:19:42;33.45;;;16.83;;
4696;SDS011;2362;50.780;0.292;2023-01-29T06:22:08;32.10;;;14.55;;
4696;SDS011;2362;50.780;0.292;2023-01-29T06:24:33;27.77;;;14.35;;
4696;SDS011;2362;50.780;0.292;2023-01-29T06:26:59;30.13;;;13.20;;
4696;SDS011;2362;50.780;0.292;2023-01-29T06:29:25;27.98;;;13.65;;
4696;SDS011;2362;50.780;0.292;2023-01-29T06:31:50;25.08;;;13.55;;
4696;SDS011;2362;50.780;0.292;2023-01-29T06:34:16;26.08;;;14.52;;
4696;SDS011;2362;50.780;0.292;2023-01-29T06:36:42;24.27;;;14.77;;
4696;SDS011;2362;50.780;0.292;2023-01-29T06:39:07;28.60;;;14.65;;
4696;SDS011;2362;50.780;0.292;2023-01-29T06:41:33;29.00;;;13.23;;
4696;SDS011;2362;50.780;0.292;2023-01-29T06:43:59;30.70;;;14.60;;
4696;SDS011;2362;50.780;0.292;2023-01-29T06:46:25;27.63;;;13.35;;
4696;SDS011;2362;50.780;0.292;2023-01-29T06:48:50;26.20;;;14.50;;
4696;SDS011;2362;50.780;0.292;2023-01-29T06:51:16;27.25;;;14.85;;
4696;SDS011;2362;50.780;0.292;2023-01-29T06:53:42;26.45;;;15.13;;
4696;SDS011;2362;50.780;0.292;2023-01-29T06:56:07;27.27;;;14.10;;
4696;SDS011;2362;50.780;0.292;2023-01-29T06:58:36;32.67;;;15.75;;
4696;SDS011;2362;50.780;0.292;2023-01-29T07:01:06;26.45;;;13.55;;
4696;SDS011;2362;50.780;0.292;2023-01-29T07:03:33;30.83;;;15.35;;
4696;SDS011;2362;50.780;0.292;2023-01-29T07:05:59;31.10;;;14.25;;
4696;SDS011;2362;50.780;0.292;2023-01-29T07:08:25;33.40;;;14.70;;
4696;SDS011;2362;50.780;0.292;2023-01-29T07:10:50;33.50;;;17.15;;
4696;SDS011;2362;50.780;0.292;2023-01-29T07:13:16;36.45;;;16.23;;
4696;SDS011;2362;50.780;0.292;2023-01-29T07:15:42;33.13;;;15.77;;
4696;SDS011;2362;50.780;0.292;2023-01-29T07:18:08;38.38;;;17.52;;
4696;SDS011;2362;50.780;0.292;2023-01-29T07:20:38;33.30;;;16.45;;
4696;SDS011;2362;50.780;0.292;2023-01-29T07:23:05;29.55;;;16.42;;
4696;SDS011;2362;50.780;0.292;2023-01-29T07:25:32;36.15;;;15.48;;
4696;SDS011;2362;50.780;0.292;2023-01-29T07:28:01;34.47;;;16.90;;
4696;SDS011;2362;50.780;0.292;2023-01-29T07:30:27;31.58;;;16.75;;
4696;SDS011;2362;50.780;0.292;2023-01-29T07:32:53;40.83;;;18.50;;
4696;SDS011;2362;50.780;0.292;2023-01-29T07:35:19;30.50;;;16.83;;
4696;SDS011;2362;50.780;0.292;2023-01-29T07:37:47;37.85;;;18.42;;
4696;SDS011;2362;50.780;0.292;2023-01-29T07:40:14;32.45;;;17.30;;
4696;SDS011;2362;50.780;0.292;2023-01-29T07:42:39;31.77;;;17.13;;
4696;SDS011;2362;50.780;0.292;2023-01-29T07:45:08;32.83;;;17.83;;
4696;SDS011;2362;50.780;0.292;2023-01-29T07:47:35;32.90;;;17.08;;
4696;SDS011;2362;50.780;0.292;2023-01-29T07:50:01;38.05;;;17.67;;
4696;SDS011;2362;50.780;0.292;2023-01-29T07:52:31;31.42;;;16.65;;
4696;SDS011;2362;50.780;0.292;2023-01-29T07:54:57;36.42;;;17.45;;
4696;SDS011;2362;50.780;0.292;2023-01-29T07:57:23;35.13;;;17.88;;
4696;SDS011;2362;50.780;0.292;2023-01-29T07:59:49;27.70;;;15.73;;
4696;SDS011;2362;50.780;0.292;2023-01-29T08:02:15;39.10;;;16.50;;
4696;SDS011;2362;50.780;0.292;2023-01-29T08:04:41;35.25;;;16.90;;
4696;SDS011;2362;50.780;0.292;2023-01-29T08:07:06;30.15;;;16.48;;
4696;SDS011;2362;50.780;0.292;2023-01-29T08:09:33;31.50;;;16.80;;
4696;SDS011;2362;50.780;0.292;2023-01-29T08:11:59;27.48;;;14.85;;
4696;SDS011;2362;50.780;0.292;2023-01-29T08:14:25;34.85;;;16.08;;
4696;SDS011;2362;50.780;0.292;2023-01-29T08:16:51;36.97;;;16.38;;
4696;SDS011;2362;50.780;0.292;2023-01-29T08:19:16;35.40;;;17.70;;
4696;SDS011;2362;50.780;0.292;2023-01-29T08:21:42;35.30;;;14.05;;
4696;SDS011;2362;50.780;0.292;2023-01-29T08:24:07;29.05;;;14.48;;
4696;SDS011;2362;50.780;0.292;2023-01-29T08:26:33;27.98;;;14.52;;
4696;SDS011;2362;50.780;0.292;2023-01-29T08:28:59;31.15;;;14.63;;
4696;SDS011;2362;50.780;0.292;2023-01-29T08:31:25;27.80;;;14.13;;
4696;SDS011;2362;50.780;0.292;2023-01-29T08:33:52;28.08;;;13.15;;
4696;SDS011;2362;50.780;0.292;2023-01-29T08:36:19;31.48;;;12.60;;
4696;SDS011;2362;50.780;0.292;2023-01-29T08:38:44;23.23;;;12.55;;
4696;SDS011;2362;50.780;0.292;2023-01-29T08:41:10;19.67;;;11.00;;
4696;SDS011;2362;50.780;0.292;2023-01-29T08:43:36;29.25;;;11.35;;
4696;SDS011;2362;50.780;0.292;2023-01-29T08:46:03;24.95;;;11.18;;
4696;SDS011;2362;50.780;0.292;2023-01-29T08:48:29;24.48;;;11.10;;
4696;SDS011;2362;50.780;0.292;2023-01-29T08:50:56;19.60;;;10.80;;
4696;SDS011;2362;50.780;0.292;2023-01-29T08:53:23;22.27;;;10.82;;
4696;SDS011;2362;50.780;0.292;2023-01-29T08:55:50;25.13;;;10.13;;
4696;SDS011;2362;50.780;0.292;2023-01-29T08:58:16;20.50;;;10.82;;
4696;SDS011;2362;50.780;0.292;2023-01-29T09:00:42;23.45;;;11.05;;
4696;SDS011;2362;50.780;0.292;2023-01-29T09:03:08;22.08;;;11.63;;
4696;SDS011;2362;50.780;0.292;2023-01-29T09:05:37;24.92;;;11.10;;
4696;SDS011;2362;50.780;0.292;2023-01-29T09:08:04;23.25;;;11.65;;
4696;SDS011;2362;50.780;0.292;2023-01-29T09:10:31;21.55;;;10.30;;
4696;SDS011;2362;50.780;0.292;2023-01-29T09:12:56;24.73;;;11.27;;
4696;SDS011;2362;50.780;0.292;2023-01-29T09:15:22;23.17;;;11.88;;
4696;SDS011;2362;50.780;0.292;2023-01-29T09:17:48;26.88;;;12.57;;
4696;SDS011;2362;50.780;0.292;2023-01-29T09:20:14;28.48;;;14.27;;
4696;SDS011;2362;50.780;0.292;2023-01-29T09:22:40;26.25;;;15.05;;
4696;SDS011;2362;50.780;0.292;2023-01-29T09:25:06;29.55;;;14.75;;
4696;SDS011;2362;50.780;0.292;2023-01-29T09:27:32;38.53;;;19.00;;
4696;SDS011;2362;50.780;0.292;2023-01-29T09:29:57;45.50;;;19.10;;
4696;SDS011;2362;50.780;0.292;2023-01-29T09:32:23;36.30;;;17.88;;
4696;SDS011;2362;50.780;0.292;2023-01-29T09:34:49;36.00;;;19.23;;
4696;SDS011;2362;50.780;0.292;2023-01-29T09:37:14;38.35;;;18.75;;
4696;SDS011;2362;50.780;0.292;2023-01-29T09:39:42;37.35;;;18.15;;
4696;SDS011;2362;50.780;0.292;2023-01-29T09:42:19;32.42;;;16.50;;
4696;SDS011;2362;50.780;0.292;2023-01-29T09:47:23;34.23;;;17.50;;
4696;SDS011;2362;50.780;0.292;2023-01-29T09:50:25;42.83;;;18.60;;
4696;SDS011;2362;50.780;0.292;2023-01-29T09:53:02;33.22;;;17.48;;
4696;SDS011;2362;50.780;0.292;2023-01-29T09:55:40;30.77;;;16.35;;
4696;SDS011;2362;50.780;0.292;2023-01-29T09:58:20;40.22;;;17.40;;
4696;SDS011;2362;50.780;0.292;2023-01-29T10:12:19;28.35;;;12.68;;
4696;SDS011;2362;50.780;0.292;2023-01-29T10:20:42;24.77;;;12.23;;
4696;SDS011;2362;50.780;0.292;2023-01-29T10:23:21;22.42;;;10.15;;
4696;SDS011;2362;50.780;0.292;2023-01-29T10:25:53;24.92;;;10.93;;
4696;SDS011;2362;50.780;0.292;2023-01-29T10:28:24;21.67;;;8.77;;
4696;SDS011;2362;50.780;0.292;2023-01-29T10:31:12;14.65;;;8.20;;
4696;SDS011;2362;50.780;0.292;2023-01-29T10:33:40;13.73;;;6.63;;
4696;SDS011;2362;50.780;0.292;2023-01-29T10:36:17;11.48;;;6.70;;
4696;SDS011;2362;50.780;0.292;2023-01-29T10:38:46;16.58;;;6.53;;
4696;SDS011;2362;50.780;0.292;2023-01-29T10:41:17;16.85;;;7.55;;
4696;SDS011;2362;50.780;0.292;2023-01-29T10:46:34;15.20;;;6.20;;
4696;SDS011;2362;50.780;0.292;2023-01-29T10:49:20;12.48;;;5.82;;
4696;SDS011;2362;50.780;0.292;2023-01-29T10:51:53;10.70;;;4.72;;
4696;SDS011;2362;50.780;0.292;2023-01-29T11:02:32;15.63;;;6.60;;
4696;SDS011;2362;50.780;0.292;2023-01-29T11:04:58;10.32;;;5.07;;
4696;SDS011;2362;50.780;0.292;2023-01-29T11:07:24;11.20;;;5.75;;
4696;SDS011;2362;50.780;0.292;2023-01-29T11:10:07;11.18;;;5.32;;
4696;SDS011;2362;50.780;0.292;2023-01-29T11:12:36;9.20;;;4.65;;
4696;SDS011;2362;50.780;0.292;2023-01-29T11:15:04;12.32;;;5.03;;
4696;SDS011;2362;50.780;0.292;2023-01-29T11:17:31;19.80;;;5.97;;
4696;SDS011;2362;50.780;0.292;2023-01-29T11:19:57;12.98;;;5.60;;
4696;SDS011;2362;50.780;0.292;2023-01-29T11:22:23;12.27;;;5.40;;
4696;SDS011;2362;50.780;0.292;2023-01-29T11:27:43;7.03;;;4.00;;
4696;SDS011;2362;50.780;0.292;2023-01-29T11:30:27;6.47;;;3.83;;
4696;SDS011;2362;50.780;0.292;2023-01-29T11:35:32;6.03;;;3.20;;
4696;SDS011;2362;50.780;0.292;2023-01-29T11:38:18;6.03;;;2.53;;
4696;SDS011;2362;50.780;0.292;2023-01-29T11:40:45;5.95;;;3.08;;
4696;SDS011;2362;50.780;0.292;2023-01-29T11:43:19;9.25;;;2.78;;
4696;SDS011;2362;50.780;0.292;2023-01-29T11:45:48;10.30;;;3.97;;
4696;SDS011;2362;50.780;0.292;2023-01-29T11:48:18;12.82;;;3.33;;
4696;SDS011;2362;50.780;0.292;2023-01-29T11:50:56;9.13;;;3.40;;
4696;SDS011;2362;50.780;0.292;2023-01-29T11:53:34;7.68;;;2.90;;
4696;SDS011;2362;50.780;0.292;2023-01-29T11:59:05;6.20;;;2.60;;
4696;SDS011;2362;50.780;0.292;2023-01-29T12:05:24;5.32;;;2.28;;
4696;SDS011;2362;50.780;0.292;2023-01-29T12:07:51;4.70;;;2.45;;
4696;SDS011;2362;50.780;0.292;2023-01-29T12:15:36;6.68;;;2.58;;
4696;SDS011;2362;50.780;0.292;2023-01-29T12:21:03;2.70;;;1.67;;
4696;SDS011;2362;50.780;0.292;2023-01-29T12:34:28;4.35;;;2.15;;
4696;SDS011;2362;50.780;0.292;2023-01-29T12:39:42;10.93;;;2.72;;
4696;SDS011;2362;50.780;0.292;2023-01-29T12:42:29;4.20;;;1.63;;
4696;SDS011;2362;50.780;0.292;2023-01-29T12:45:02;5.50;;;3.03;;
4696;SDS011;2362;50.780;0.292;2023-01-29T12:47:43;4.95;;;2.28;;
4696;SDS011;2362;50.780;0.292;2023-01-29T12:50:14;9.27;;;2.83;;
4696;SDS011;2362;50.780;0.292;2023-01-29T12:56:34;13.63;;;3.70;;
4696;SDS011;2362;50.780;0.292;2023-01-29T12:59:04;12.77;;;4.63;;
4696;SDS011;2362;50.780;0.292;2023-01-29T13:01:45;10.35;;;4.60;;
4696;SDS011;2362;50.780;0.292;2023-01-29T13:07:13;10.38;;;4.22;;
4696;SDS011;2362;50.780;0.292;2023-01-29T13:09:49;11.05;;;4.63;;
4696;SDS011;2362;50.780;0.292;2023-01-29T13:12:18;13.82;;;4.80;;
4696;SDS011;2362;50.780;0.292;2023-01-29T13:14:46;13.75;;;3.97;;
4696;SDS011;2362;50.780;0.292;2023-01-29T13:20:09;14.32;;;5.28;;
4696;SDS011;2362;50.780;0.292;2023-01-29T13:22:39;11.45;;;5.05;;
4696;SDS011;2362;50.780;0.292;2023-01-29T13:25:14;10.10;;;4.00;;
4696;SDS011;2362;50.780;0.292;2023-01-29T13:27:42;16.30;;;3.90;;
4696;SDS011;2362;50.780;0.292;2023-01-29T13:30:31;11.45;;;4.03;;
4696;SDS011;2362;50.780;0.292;2023-01-29T13:32:57;15.25;;;4.00;;
4696;SDS011;2362;50.780;0.292;2023-01-29T13:35:40;6.35;;;2.92;;
4696;SDS011;2362;50.780;0.292;2023-01-29T13:38:21;10.03;;;3.53;;
4696;SDS011;2362;50.780;0.292;2023-01-29T13:43:24;7.82;;;2.75;;
4696;SDS011;2362;50.780;0.292;2023-01-29T13:45:51;12.40;;;3.13;;
4696;SDS011;2362;50.780;0.292;2023-01-29T13:48:26;13.25;;;3.70;;
4696;SDS011;2362;50.780;0.292;2023-01-29T13:50:54;6.90;;;2.45;;
4696;SDS011;2362;50.780;0.292;2023-01-29T13:53:22;13.43;;;2.55;;
4696;SDS011;2362;50.780;0.292;2023-01-29T13:55:53;16.20;;;2.60;;
4696;SDS011;2362;50.780;0.292;2023-01-29T14:00:57;6.78;;;1.70;;
4696;SDS011;2362;50.780;0.292;2023-01-29T14:13:37;9.45;;;1.33;;
4696;SDS011;2362;50.780;0.292;2023-01-29T14:18:29;11.68;;;1.55;;
4696;SDS011;2362;50.780;0.292;2023-01-29T14:23:39;8.32;;;1.00;;
4696;SDS011;2362;50.780;0.292;2023-01-29T14:31:56;19.10;;;1.25;;
4696;SDS011;2362;50.780;0.292;2023-01-29T14:34:32;9.20;;;1.50;;
4696;SDS011;2362;50.780;0.292;2023-01-29T14:42:19;11.68;;;1.50;;
4696;SDS011;2362;50.780;0.292;2023-01-29T14:44:47;11.35;;;0.88;;
4696;SDS011;2362;50.780;0.292;2023-01-29T14:58:35;7.63;;;1.80;;
4696;SDS011;2362;50.780;0.292;2023-01-29T15:01:34;7.18;;;1.50;;
4696;SDS011;2362;50.780;0.292;2023-01-29T15:04:02;18.13;;;1.33;;
4696;SDS011;2362;50.780;0.292;2023-01-29T15:06:33;7.45;;;1.15;;
4696;SDS011;2362;50.780;0.292;2023-01-29T15:09:17;12.52;;;2.22;;
4696;SDS011;2362;50.780;0.292;2023-01-29T15:12:10;8.38;;;1.27;;
4696;SDS011;2362;50.780;0.292;2023-01-29T15:18:07;10.60;;;2.40;;
4696;SDS011;2362;50.780;0.292;2023-01-29T15:20:37;16.60;;;2.17;;
4696;SDS011;2362;50.780;0.292;2023-01-29T15:23:22;11.98;;;1.38;;
4696;SDS011;2362;50.780;0.292;2023-01-29T15:25:49;14.32;;;2.50;;
4696;SDS011;2362;50.780;0.292;2023-01-29T15:28:16;16.08;;;1.88;;
4696;SDS011;2362;50.780;0.292;2023-01-29T15:30:42;14.32;;;2.00;;
4696;SDS011;2362;50.780;0.292;2023-01-29T15:33:09;11.02;;;1.98;;
4696;SDS011;2362;50.780;0.292;2023-01-29T15:35:38;14.80;;;2.38;;
4696;SDS011;2362;50.780;0.292;2023-01-29T15:38:13;9.57;;;1.70;;
4696;SDS011;2362;50.780;0.292;2023-01-29T15:40:59;9.52;;;1.58;;
4696;SDS011;2362;50.780;0.292;2023-01-29T15:43:30;14.50;;;2.33;;
4696;SDS011;2362;50.780;0.292;2023-01-29T15:46:11;10.30;;;2.08;;
4696;SDS011;2362;50.780;0.292;2023-01-29T15:48:47;11.18;;;1.80;;
4696;SDS011;2362;50.780;0.292;2023-01-29T15:51:15;12.38;;;1.88;;
4696;SDS011;2362;50.780;0.292;2023-01-29T15:53:47;9.57;;;1.90;;
4696;SDS011;2362;50.780;0.292;2023-01-29T15:56:17;12.80;;;1.88;;
4696;SDS011;2362;50.780;0.292;2023-01-29T15:58:47;23.73;;;2.25;;
4696;SDS011;2362;50.780;0.292;2023-01-29T16:01:15;17.40;;;2.33;;
4696;SDS011;2362;50.780;0.292;2023-01-29T16:03:41;18.30;;;3.35;;
4696;SDS011;2362;50.780;0.292;2023-01-29T16:06:08;13.90;;;2.60;;
4696;SDS011;2362;50.780;0.292;2023-01-29T16:08:34;6.88;;;1.88;;
4696;SDS011;2362;50.780;0.292;2023-01-29T16:11:03;23.95;;;2.92;;
4696;SDS011;2362;50.780;0.292;2023-01-29T16:13:31;14.75;;;2.45;;
4696;SDS011;2362;50.780;0.292;2023-01-29T16:18:44;15.80;;;2.80;;
4696;SDS011;2362;50.780;0.292;2023-01-29T16:21:14;21.02;;;2.60;;
4696;SDS011;2362;50.780;0.292;2023-01-29T16:23:50;21.08;;;2.60;;
4696;SDS011;2362;50.780;0.292;2023-01-29T16:26:27;19.10;;;2.10;;
4696;SDS011;2362;50.780;0.292;2023-01-29T16:28:56;14.13;;;2.50;;
4696;SDS011;2362;50.780;0.292;2023-01-29T16:31:31;23.23;;;2.42;;
4696;SDS011;2362;50.780;0.292;2023-01-29T16:33:58;25.25;;;2.00;;
4696;SDS011;2362;50.780;0.292;2023-01-29T16:36:34;19.88;;;2.80;;
4696;SDS011;2362;50.780;0.292;2023-01-29T16:39:01;25.20;;;2.88;;
4696;SDS011;2362;50.780;0.292;2023-01-29T16:41:31;16.15;;;2.63;;
4696;SDS011;2362;50.780;0.292;2023-01-29T16:44:01;19.40;;;2.45;;
4696;SDS011;2362;50.780;0.292;2023-01-29T16:46:47;19.52;;;2.80;;
4696;SDS011;2362;50.780;0.292;2023-01-29T16:51:53;19.88;;;2.38;;
4696;SDS011;2362;50.780;0.292;2023-01-29T16:54:23;16.17;;;2.15;;
4696;SDS011;2362;50.780;0.292;2023-01-29T16:56:54;16.50;;;1.95;;
4696;SDS011;2362;50.780;0.292;2023-01-29T16:59:33;19.17;;;2.45;;
4696;SDS011;2362;50.780;0.292;2023-01-29T17:02:01;21.30;;;2.78;;
4696;SDS011;2362;50.780;0.292;2023-01-29T17:04:28;15.15;;;2.00;;
4696;SDS011;2362;50.780;0.292;2023-01-29T17:06:57;15.60;;;3.22;;
4696;SDS011;2362;50.780;0.292;2023-01-29T17:09:28;8.18;;;1.55;;
4696;SDS011;2362;50.780;0.292;2023-01-29T17:11:58;16.08;;;2.92;;
4696;SDS011;2362;50.780;0.292;2023-01-29T17:14:30;18.20;;;2.28;;
4696;SDS011;2362;50.780;0.292;2023-01-29T17:17:15;16.13;;;2.28;;
4696;SDS011;2362;50.780;0.292;2023-01-29T17:19:42;27.25;;;2.40;;
4696;SDS011;2362;50.780;0.292;2023-01-29T17:22:08;17.13;;;2.35;;
4696;SDS011;2362;50.780;0.292;2023-01-29T17:24:39;19.48;;;2.33;;
4696;SDS011;2362;50.780;0.292;2023-01-29T17:27:05;19.30;;;2.45;;
4696;SDS011;2362;50.780;0.292;2023-01-29T17:29:31;17.52;;;2.17;;
4696;SDS011;2362;50.780;0.292;2023-01-29T17:31:57;13.13;;;2.13;;
4696;SDS011;2362;50.780;0.292;2023-01-29T17:34:26;29.10;;;3.47;;
4696;SDS011;2362;50.780;0.292;2023-01-29T17:36:52;21.52;;;2.78;;
4696;SDS011;2362;50.780;0.292;2023-01-29T17:39:18;23.70;;;2.85;;
4696;SDS011;2362;50.780;0.292;2023-01-29T17:41:49;24.00;;;2.60;;
4696;SDS011;2362;50.780;0.292;2023-01-29T17:44:16;20.48;;;3.47;;
4696;SDS011;2362;50.780;0.292;2023-01-29T17:46:42;21.67;;;3.17;;
4696;SDS011;2362;50.780;0.292;2023-01-29T17:49:11;21.33;;;2.08;;
4696;SDS011;2362;50.780;0.292;2023-01-29T17:51:48;12.82;;;2.13;;
4696;SDS011;2362;50.780;0.292;2023-01-29T17:54:14;23.85;;;2.42;;
4696;SDS011;2362;50.780;0.292;2023-01-29T17:56:40;26.30;;;2.78;;
4696;SDS011;2362;50.780;0.292;2023-01-29T17:59:16;12.93;;;1.92;;
4696;SDS011;2362;50.780;0.292;2023-01-29T18:01:43;27.67;;;3.03;;
4696;SDS011;2362;50.780;0.292;2023-01-29T18:04:09;14.77;;;2.60;;
4696;SDS011;2362;50.780;0.292;2023-01-29T18:06:36;17.05;;;2.63;;
4696;SDS011;2362;50.780;0.292;2023-01-29T18:09:02;15.23;;;2.15;;
4696;SDS011;2362;50.780;0.292;2023-01-29T18:11:28;20.42;;;2.92;;
4696;SDS011;2362;50.780;0.292;2023-01-29T18:13:54;25.65;;;3.50;;